»·PEaware :: N800DW KBFL-KMHV

N800DW :: KBFL-KMHV

FLIGHT INFORMATION

Flight Status: Arrived
Operator: Privately registered:
United States
More flights under this callsign
Pilot: Scott L. (17677)
Aircraft: CESSNA 172 SKYHAWK
(C172)
More flights by this aircraft type
Origin: KBFL Meadows
United States
Destination: KMHV Mojave
United States
More flights between these airports :: More routes between these airports
Route: DIRECT
File this flight plan on PilotEdge
Remarks: CAT 06
Altitude:
(Current/Filed)
7,500ft
Speed:
(Current/Filed)
120kts
Departed: 06-Jan-18 12:28 PM
Arrived: 06-Jan-18 12:55 PM
Distance/Time
Traveled:
187nm/0:26
Distance/Time
To Go:
Arrived

Flight Plot

Page will automatically refresh every two minutes.


Map Options




Map Legend


Flown Route
Filed Route
Departure Airport
Arrival Airport
Navaid (VOR, NDB)
Fix

Horizontal Profiles

Position Reports

Time Latitude Longitude Heading Altitude Ground
Speed
06-Jan-18 12:23 35.435703 -119.052043 180 502ft 0kts
06-Jan-18 12:24 35.435703 -119.052043 180 502ft 0kts
06-Jan-18 12:25 35.435703 -119.052043 180 502ft 0kts
06-Jan-18 12:26 35.435703 -119.052043 180 502ft 0kts
06-Jan-18 12:27 35.435157 -119.053669 226 496ft 10kts
06-Jan-18 12:28 35.431972 -119.051702 136 492ft 24kts
06-Jan-18 12:29 35.427259 -119.046022 134 484ft 26kts
06-Jan-18 12:30 35.425700 -119.044720 229 479ft 0kts
06-Jan-18 12:31 35.425700 -119.044720 229 479ft 0kts
06-Jan-18 12:32 35.425700 -119.044720 229 479ft 0kts
06-Jan-18 12:33 35.425679 -119.044752 231 479ft 0kts
06-Jan-18 12:34 35.433755 -119.056118 308 793ft 87kts
06-Jan-18 12:35 35.450772 -119.059139 59 1722ft 101kts
06-Jan-18 12:36 35.435880 -119.031536 138 2409ft 110kts
06-Jan-18 12:37 35.416631 -119.002149 124 3110ft 111kts
06-Jan-18 12:38 35.400770 -118.969336 120 3810ft 112kts
06-Jan-18 12:39 35.386128 -118.935664 119 4509ft 112kts
06-Jan-18 12:40 35.371822 -118.901755 120 5208ft 112kts
06-Jan-18 12:41 35.357666 -118.867916 120 5905ft 112kts
06-Jan-18 12:42 35.346751 -118.832717 85 6612ft 112kts
06-Jan-18 12:43 35.341489 -118.795215 110 7312ft 111kts
06-Jan-18 12:44 35.328452 -118.756234 118 7521ft 141kts
06-Jan-18 12:45 35.312388 -118.710698 115 7529ft 148kts
06-Jan-18 12:46 35.295091 -118.664950 116 7538ft 150kts
06-Jan-18 12:47 35.277348 -118.618299 123 7544ft 151kts
06-Jan-18 12:48 35.247553 -118.584638 142 7555ft 148kts
06-Jan-18 12:49 35.225073 -118.542323 118 7560ft 153kts
06-Jan-18 12:50 35.205499 -118.496152 116 7561ft 153kts
06-Jan-18 12:51 35.185750 -118.449174 117 7561ft 157kts
06-Jan-18 12:52 35.165775 -118.401721 117 7561ft 157kts
06-Jan-18 12:53 35.145063 -118.352681 116 7124ft 162kts
06-Jan-18 12:54 35.125081 -118.305353 117 6639ft 161kts
06-Jan-18 12:55 35.104916 -118.257711 118 5975ft 156kts
06-Jan-18 12:56 35.087445 -118.216279 115 5191ft 124kts
06-Jan-18 12:57 35.071497 -118.179189 121 4125ft 120kts
06-Jan-18 12:58 35.055783 -118.144929 95 3273ft 111kts
06-Jan-18 12:59 35.056367 -118.121676 281 3275ft 58kts
06-Jan-18 13:00 35.059082 -118.139126 273 2852ft 48kts
06-Jan-18 13:01 35.058748 -118.150208 130 2750ft 8kts
06-Jan-18 13:02 35.058612 -118.150026 135 2749ft 0kts
06-Jan-18 13:03 35.058612 -118.150026 135 2749ft 0kts
06-Jan-18 13:04 35.057405 -118.150185 188 2746ft 11kts
06-Jan-18 13:05 35.056914 -118.150772 332 2746ft 0kts
06-Jan-18 13:06 35.056914 -118.150772 332 2746ft 0kts
06-Jan-18 13:07 35.056914 -118.150772 332 2746ft 0kts
06-Jan-18 13:08 35.056914 -118.150772 332 2746ft 0kts
06-Jan-18 13:09 32.734272 -117.185249 196 14ft 0kts
06-Jan-18 13:10 32.734272 -117.185249 196 14ft 0kts
06-Jan-18 13:11 32.734272 -117.185249 196 14ft 0kts
06-Jan-18 13:12 32.734272 -117.185249 196 14ft 0kts
06-Jan-18 13:13 32.734272 -117.185249 196 14ft 0kts
06-Jan-18 13:14 32.734272 -117.185249 196 14ft 0kts

Navigation Log

Ident Type
1. KBFL Airport
2. KMHV Airport